Weather at Boulder City Municipal Airport

Public forecast

Using degrees Fahrenheit for public forecast. Weather courtesy of forecast.io.

Closest aviation weather report (METAR) to Boulder City Municipal Airport

Closest report is Henderson Executive Airport, 13.5 nm (24.9 km) W.

2024/05/28 03:56 (retrieved 27 minutes ago)

KHND 280356Z AUTO 16007KT 10SM CLR 31/M01 A2993 RMK AO2 SLP121 T03111011

Closest aviation forecast (TAF) to Boulder City Municipal Airport

Forecast is more than 6 hours old.

Closest forecast is Twentynine Palms Strategic Expeditionary Landing Field, 118.0 nm (218.5 km) SSW.

2024/05/27 21:00 Ammendment (retrieved 7 hours ago)

TAF AMD KNXP 2721/2821 13010KT 9999 SKC QNH2994INS BECMG 2800/2802 21010G20KT 9999 SKC QNH2992INS BECMG 2802/2804 21015G25KT 9999 SKC QNH2998INS TEMPO 2806/2812 27006KT 9999 SKC QNH3005INS FM281830 36005KT 9999 SKC QNH3009INS T31/2723Z T17/2813Z AMD 2230